Star Princess — ZCDD6 — position and weather

sailwx.info

Track history (hours):
 
Tides and Currents Weather Stations Pressure Air Temp Water Temp Dewpoint Dewpoint Depression Visibility Wind Speed Wind Dir Waves Ship Positions

Star Princess

Operator: Princess Cruises

Last reported at 2014-Jul-30 03:00 UTC. Time now 2014-Jul-31 07:20 UTC.
Position N 44°54' W 127°48'.

Length 289.6 m; beam 36 m; draft 8.4 m.

Type: Ship. MMSI: 310361000.

Wind from 310 at 15 knots

Barometer 1023.4 mb
Air temperature 18.5 ° C
Visibility: greater than 10.8 NM
Dewpoint 17.3 ° C
Water temperature 20.0 ° C

Date/timePositionNaut miles runAvg speedWind from/ knotsBaromVisibWave heightAir tempDewpointWater temp
2014-Jul-30 03:00N 44°54' W 127°48'38519.7 310 / 151023.410.8 18.517.320.0
2014-Jul-29 07:28N 38°60' W 124°26'2019.8
2014-Jul-29 06:28N 38°42' W 124°15'1718.9
2014-Jul-29 05:34N 38°29' W 124°00'1616.3
2014-Jul-29 04:34N 38°18' W 123°46'1514.6
2014-Jul-29 03:34N 38°11' W 123°29'1514.8
2014-Jul-29 02:34N 38°03' W 123°13'1615.7
2014-Jul-29 01:34N 37°53' W 122°57'1515.1
2014-Jul-29 00:33N 37°46' W 122°41'1313.1
2014-Jul-28 23:34N 37°49' W 122°25'1 0.6
2014-Jul-28 22:31N 37°48' W 122°24'0 0.0
2014-Jul-28 21:31N 37°48' W 122°24'0 0.0
2014-Jul-28 20:31N 37°48' W 122°24'0 0.0
2014-Jul-28 19:33N 37°48' W 122°24'0 0.0
2014-Jul-28 18:33N 37°48' W 122°24'0 0.0
2014-Jul-28 17:32N 37°48' W 122°24'0 0.0
2014-Jul-28 16:32N 37°48' W 122°24'0 0.0
2014-Jul-28 15:31N 37°48' W 122°24'0 0.0
2014-Jul-28 14:31N 37°48' W 122°24'0 0.0
2014-Jul-28 13:33N 37°48' W 122°24'6 5.9
2014-Jul-28 12:33N 37°48' W 122°32'1111.5
2014-Jul-28 11:33N 37°47' W 122°46'1212.4
2014-Jul-28 10:33N 37°53' W 123°00'1413.9
2014-Jul-28 09:33N 38°01' W 123°14'1414.1
2014-Jul-28 08:33N 38°09' W 123°29'1717.4
2014-Jul-28 07:34N 38°17' W 123°49'1919.3
2014-Jul-28 06:33N 38°32' W 124°04'2020.3
2014-Jul-28 05:33N 38°49' W 124°19'2020.5
2014-Jul-28 04:33N 39°08' W 124°27'2120.7
2014-Jul-28 03:33N 39°28' W 124°36'1526.7
2014-Jul-28 03:00N 39°42' W 124°42'30720.9 340 / 171016.110.8 1.020.416.712.0
2014-Jul-27 12:17N 44°48' W 125°12'1621.2
2014-Jul-27 11:31N 45°05' W 125°13'6221.1
2014-Jul-27 08:33N 46°07' W 125°17'2120.8
2014-Jul-27 07:33N 46°28' W 125°17'2121.0
2014-Jul-27 06:33N 46°49' W 125°17'2620.9
2014-Jul-27 05:17N 47°15' W 125°18'2121.2
2014-Jul-27 04:17N 47°36' W 125°19'4120.8
2014-Jul-27 02:19N 48°17' W 125°10'1520.1
2014-Jul-27 01:34N 48°30' W 125°00'4419.7
2014-Jul-26 23:20N 48°18' W 123°57'1718.7
2014-Jul-26 22:27N 48°15' W 123°32'1111.8
2014-Jul-26 21:33N 48°24' W 123°24'1 0.5
2014-Jul-26 19:24N 48°25' W 123°24'0 0.0
2014-Jul-26 18:33N 48°25' W 123°24'0 0.0
2014-Jul-26 17:32N 48°25' W 123°24'0 0.0
2014-Jul-26 16:29N 48°25' W 123°24'0 0.0
2014-Jul-26 15:32N 48°25' W 123°24'0 0.0
2014-Jul-26 14:31N 48°25' W 123°24'0 0.0
2014-Jul-26 13:34N 48°25' W 123°24'7 6.5
2014-Jul-26 12:34N 48°19' W 123°25'1110.4
2014-Jul-26 11:33N 48°13' W 123°39'1313.2
2014-Jul-26 10:33N 48°14' W 123°59'1414.2
2014-Jul-26 09:33N 48°21' W 124°18'1413.7
2014-Jul-26 08:34N 48°26' W 124°37'1413.5
2014-Jul-26 07:33N 48°29' W 124°57'1313.2
2014-Jul-26 06:33N 48°29' W 125°17'1313.3
2014-Jul-26 05:33N 48°37' W 125°33'1313.2
2014-Jul-26 04:33N 48°43' W 125°51'1312.9
2014-Jul-26 03:33N 48°51' W 126°06'1313.3
2014-Jul-26 02:33N 48°59' W 126°22'1313.3
2014-Jul-26 01:33N 49°07' W 126°38'8613.2
2014-Jul-25 19:00N 50°00' W 128°24'19913.2 190 / 121020.210.8 15.013.316.0
2014-Jul-25 04:00N 52°18' W 132°12'10812.0 230 / 191017.410.8 0.513.511.815.0
2014-Jul-24 19:00N 53°54' W 133°36'5718.9 210 / 151015.710.8 0.515.010.615.0
2014-Jul-24 16:00N 54°48' W 134°06'20515.2 240 / 171014.410.8 0.512.810.714.0
2014-Jul-24 02:32N 58°09' W 135°17'3 0.2
2014-Jul-23 14:07N 58°09' W 135°23'69 2.0
2014-Jul-22 03:00N 57°30' W 133°36'43 3.5 170 / 141013.410.8 17.513.4 8.0
2014-Jul-21 15:00N 56°54' W 134°18'182 6.0 060 / 201011.210.8 0.512.010.210.0
2014-Jul-20 08:25N 54°26' W 131°11'1619.0
2014-Jul-20 07:33N 54°10' W 131°01'10222.4
2014-Jul-20 03:00N 52°30' W 130°30'   330 / 131013.910.8 0.514.612.815.0
Track history (hours):
 
Tides and Currents Weather Stations Pressure Air Temp Water Temp Dewpoint Dewpoint Depression Visibility Wind Speed Wind Dir Waves Ship Positions

Star Princess

Operator: Princess Cruises

Last reported at 2014-Jul-30 03:00 UTC. Time now 2014-Jul-31 07:20 UTC.
Position N 44°54' W 127°48'.

Length 289.6 m; beam 36 m; draft 8.4 m.

Type: Ship. MMSI: 310361000.

Wind from 310 at 15 knots

Barometer 1023.4 mb
Air temperature 18.5 ° C
Visibility: greater than 10.8 NM
Dewpoint 17.3 ° C
Water temperature 20.0 ° C

Date/timePositionNaut miles runAvg speedWind from/ knotsBaromVisibWave heightAir tempDewpointWater temp
2014-Jul-30 03:00N 44°54' W 127°48'38519.7 310 / 151023.410.8 18.517.320.0
2014-Jul-29 07:28N 38°60' W 124°26'2019.8
2014-Jul-29 06:28N 38°42' W 124°15'1718.9
2014-Jul-29 05:34N 38°29' W 124°00'1616.3
2014-Jul-29 04:34N 38°18' W 123°46'1514.6
2014-Jul-29 03:34N 38°11' W 123°29'1514.8
2014-Jul-29 02:34N 38°03' W 123°13'1615.7
2014-Jul-29 01:34N 37°53' W 122°57'1515.1
2014-Jul-29 00:33N 37°46' W 122°41'1313.1
2014-Jul-28 23:34N 37°49' W 122°25'1 0.6
2014-Jul-28 22:31N 37°48' W 122°24'0 0.0
2014-Jul-28 21:31N 37°48' W 122°24'0 0.0
2014-Jul-28 20:31N 37°48' W 122°24'0 0.0
2014-Jul-28 19:33N 37°48' W 122°24'0 0.0
2014-Jul-28 18:33N 37°48' W 122°24'0 0.0
2014-Jul-28 17:32N 37°48' W 122°24'0 0.0
2014-Jul-28 16:32N 37°48' W 122°24'0 0.0
2014-Jul-28 15:31N 37°48' W 122°24'0 0.0
2014-Jul-28 14:31N 37°48' W 122°24'0 0.0
2014-Jul-28 13:33N 37°48' W 122°24'6 5.9
2014-Jul-28 12:33N 37°48' W 122°32'1111.5
2014-Jul-28 11:33N 37°47' W 122°46'1212.4
2014-Jul-28 10:33N 37°53' W 123°00'1413.9
2014-Jul-28 09:33N 38°01' W 123°14'1414.1
2014-Jul-28 08:33N 38°09' W 123°29'1717.4
2014-Jul-28 07:34N 38°17' W 123°49'1919.3
2014-Jul-28 06:33N 38°32' W 124°04'2020.3
2014-Jul-28 05:33N 38°49' W 124°19'2020.5
2014-Jul-28 04:33N 39°08' W 124°27'2120.7
2014-Jul-28 03:33N 39°28' W 124°36'1526.7
2014-Jul-28 03:00N 39°42' W 124°42'30720.9 340 / 171016.110.8 1.020.416.712.0
2014-Jul-27 12:17N 44°48' W 125°12'1621.2
2014-Jul-27 11:31N 45°05' W 125°13'6221.1
2014-Jul-27 08:33N 46°07' W 125°17'2120.8
2014-Jul-27 07:33N 46°28' W 125°17'2121.0
2014-Jul-27 06:33N 46°49' W 125°17'2620.9
2014-Jul-27 05:17N 47°15' W 125°18'2121.2
2014-Jul-27 04:17N 47°36' W 125°19'4120.8
2014-Jul-27 02:19N 48°17' W 125°10'1520.1
2014-Jul-27 01:34N 48°30' W 125°00'4419.7
2014-Jul-26 23:20N 48°18' W 123°57'1718.7
2014-Jul-26 22:27N 48°15' W 123°32'1111.8
2014-Jul-26 21:33N 48°24' W 123°24'1 0.5
2014-Jul-26 19:24N 48°25' W 123°24'0 0.0
2014-Jul-26 18:33N 48°25' W 123°24'0 0.0
2014-Jul-26 17:32N 48°25' W 123°24'0 0.0
2014-Jul-26 16:29N 48°25' W 123°24'0 0.0
2014-Jul-26 15:32N 48°25' W 123°24'0 0.0
2014-Jul-26 14:31N 48°25' W 123°24'0 0.0
2014-Jul-26 13:34N 48°25' W 123°24'7 6.5
2014-Jul-26 12:34N 48°19' W 123°25'1110.4
2014-Jul-26 11:33N 48°13' W 123°39'1313.2
2014-Jul-26 10:33N 48°14' W 123°59'1414.2
2014-Jul-26 09:33N 48°21' W 124°18'1413.7
2014-Jul-26 08:34N 48°26' W 124°37'1413.5
2014-Jul-26 07:33N 48°29' W 124°57'1313.2
2014-Jul-26 06:33N 48°29' W 125°17'1313.3
2014-Jul-26 05:33N 48°37' W 125°33'1313.2
2014-Jul-26 04:33N 48°43' W 125°51'1312.9
2014-Jul-26 03:33N 48°51' W 126°06'1313.3
2014-Jul-26 02:33N 48°59' W 126°22'1313.3
2014-Jul-26 01:33N 49°07' W 126°38'8613.2
2014-Jul-25 19:00N 50°00' W 128°24'19913.2 190 / 121020.210.8 15.013.316.0
2014-Jul-25 04:00N 52°18' W 132°12'10812.0 230 / 191017.410.8 0.513.511.815.0
2014-Jul-24 19:00N 53°54' W 133°36'5718.9 210 / 151015.710.8 0.515.010.615.0
2014-Jul-24 16:00N 54°48' W 134°06'20515.2 240 / 171014.410.8 0.512.810.714.0
2014-Jul-24 02:32N 58°09' W 135°17'3 0.2
2014-Jul-23 14:07N 58°09' W 135°23'69 2.0
2014-Jul-22 03:00N 57°30' W 133°36'43 3.5 170 / 141013.410.8 17.513.4 8.0
2014-Jul-21 15:00N 56°54' W 134°18'182 6.0 060 / 201011.210.8 0.512.010.210.0
2014-Jul-20 08:25N 54°26' W 131°11'1619.0
2014-Jul-20 07:33N 54°10' W 131°01'10222.4
2014-Jul-20 03:00N 52°30' W 130°30'   330 / 131013.910.8 0.514.612.815.0

Dump ship's entire track history